Time;durP1;ratioP1;P1;durP2;ratioP2;P2;SDS_P1;SDS_P2;PMS_P1;PMS_P2;Temp;Humidity;BMP_temperature;BMP_pressure;BME280_temperature;BME280_humidity;BME280_pressure;Samples;Min_cycle;Max_cycle;Signal;HPM_P1;HPM_P2
2024/03/28 00:00:00;;;;;;;5.38;1.00;;;;;;;;;;2063454;28;20033;-43
2024/03/28 00:01:03;;;;;;;6.57;1.25;;;;;;;;;;2057997;28;20007;-43
2024/03/28 00:02:04;;;;;;;4.85;1.30;;;;;;;;;;2065147;28;20022;-47
2024/03/28 00:03:05;;;;;;;2.67;0.70;;;;;;;;;;2065920;28;20019;-47
2024/03/28 00:04:07;;;;;;;7.72;1.35;;;;;;;;;;2070662;28;20014;-48
2024/03/28 00:05:08;;;;;;;5.53;1.23;;;;;;;;;;2071416;28;20156;-46
2024/03/28 00:06:10;;;;;;;6.68;1.05;;;;;;;;;;2065730;28;20026;-44
2024/03/28 00:07:11;;;;;;;3.92;0.88;;;;;;;;;;2070319;28;20107;-44
2024/03/28 00:08:12;;;;;;;4.95;0.77;;;;;;;;;;2072341;28;20025;-44
2024/03/28 00:09:15;;;;;;;3.30;0.43;;;;;;;;;;2074140;28;20033;-43
2024/03/28 00:10:16;;;;;;;4.45;0.90;;;;;;;;;;2068209;28;20359;-44
2024/03/28 00:11:17;;;;;;;4.43;1.02;;;;;;;;;;2065383;28;20513;-44
2024/03/28 00:12:19;;;;;;;4.50;1.00;;;;;;;;;;2063678;28;20061;-44
2024/03/28 00:13:20;;;;;;;3.35;0.57;;;;;;;;;;2057355;28;20030;-43
2024/03/28 00:14:22;;;;;;;5.20;0.75;;;;;;;;;;2065126;28;20101;-44
2024/03/28 00:15:23;;;;;;;3.45;1.10;;;;;;;;;;2065931;28;20026;-44
2024/03/28 00:16:25;;;;;;;5.53;1.27;;;;;;;;;;2069605;28;20026;-44
2024/03/28 00:17:26;;;;;;;4.93;0.63;;;;;;;;;;2064587;28;20595;-43
2024/03/28 00:18:29;;;;;;;5.15;1.00;;;;;;;;;;2068009;28;20031;-44
2024/03/28 00:19:30;;;;;;;4.05;0.88;;;;;;;;;;2065855;28;20130;-45
2024/03/28 00:20:32;;;;;;;4.60;1.10;;;;;;;;;;2063282;28;20161;-45
2024/03/28 00:21:33;;;;;;;4.40;0.80;;;;;;;;;;2069950;28;20018;-44
2024/03/28 00:22:35;;;;;;;5.85;1.45;;;;;;;;;;2073287;28;20033;-45
2024/03/28 00:23:36;;;;;;;7.10;0.90;;;;;;;;;;2060544;28;20102;-44
2024/03/28 00:24:37;;;;;;;5.80;0.93;;;;;;;;;;2070833;28;20096;-44
2024/03/28 00:25:38;;;;;;;6.43;0.90;;;;;;;;;;2067030;28;20019;-44
2024/03/28 00:26:40;;;;;;;3.35;0.88;;;;;;;;;;2059496;28;20575;-44
2024/03/28 00:27:41;;;;;;;6.00;0.82;;;;;;;;;;2069123;28;20026;-44
2024/03/28 00:28:42;;;;;;;6.55;0.80;;;;;;;;;;2065760;28;20041;-44
2024/03/28 00:29:44;;;;;;;6.45;1.20;;;;;;;;;;2066107;28;20049;-45
2024/03/28 00:30:47;;;;;;;3.30;0.98;;;;;;;;;;2070227;28;20433;-44
2024/03/28 00:31:48;;;;;;;2.63;0.90;;;;;;;;;;2066161;28;20111;-44
2024/03/28 00:32:50;;;;;;;2.67;0.60;;;;;;;;;;2068438;28;20014;-44
2024/03/28 00:33:51;;;;;;;4.55;1.00;;;;;;;;;;2067337;28;20552;-43
2024/03/28 00:34:52;;;;;;;4.22;0.95;;;;;;;;;;2066242;28;20033;-43
2024/03/28 00:35:54;;;;;;;7.93;1.00;;;;;;;;;;2065459;28;20045;-42
2024/03/28 00:36:55;;;;;;;3.70;0.70;;;;;;;;;;2066110;28;20046;-44
2024/03/28 00:37:56;;;;;;;1.90;0.57;;;;;;;;;;2065348;28;20026;-42
2024/03/28 00:38:57;;;;;;;5.35;0.82;;;;;;;;;;2066034;28;20022;-42
2024/03/28 00:40:00;;;;;;;3.08;0.70;;;;;;;;;;2066108;28;20030;-49
2024/03/28 00:41:02;;;;;;;6.82;0.70;;;;;;;;;;2066050;28;20018;-45
2024/03/28 00:42:03;;;;;;;3.40;1.00;;;;;;;;;;2066289;28;20054;-46
2024/03/28 00:43:05;;;;;;;3.72;0.55;;;;;;;;;;2066185;28;20168;-45
2024/03/28 00:44:07;;;;;;;3.35;0.93;;;;;;;;;;2066372;28;20043;-47
2024/03/28 00:45:08;;;;;;;3.28;0.57;;;;;;;;;;2065270;28;20097;-47
2024/03/28 00:46:10;;;;;;;2.13;0.50;;;;;;;;;;2064727;28;20042;-47
2024/03/28 00:47:11;;;;;;;2.67;0.50;;;;;;;;;;2066090;28;20145;-46
2024/03/28 00:48:13;;;;;;;2.70;0.63;;;;;;;;;;2065082;28;20373;-47
2024/03/28 00:49:15;;;;;;;1.95;0.43;;;;;;;;;;2065896;28;20026;-46
2024/03/28 00:50:16;;;;;;;2.42;0.50;;;;;;;;;;2066016;28;20105;-47
2024/03/28 00:51:17;;;;;;;2.90;0.60;;;;;;;;;;2066262;28;20374;-47
2024/03/28 00:52:19;;;;;;;5.72;0.90;;;;;;;;;;2071235;28;20014;-47
2024/03/28 00:53:20;;;;;;;3.03;0.40;;;;;;;;;;2065930;28;20105;-47
2024/03/28 00:54:21;;;;;;;5.32;0.93;;;;;;;;;;2065745;28;20086;-49
2024/03/28 00:55:23;;;;;;;1.65;0.50;;;;;;;;;;2065938;28;20045;-46
2024/03/28 00:56:24;;;;;;;3.05;0.45;;;;;;;;;;2066011;28;20026;-47
2024/03/28 00:57:25;;;;;;;3.20;0.60;;;;;;;;;;2065731;28;20022;-49
2024/03/28 00:58:27;;;;;;;4.35;0.65;;;;;;;;;;2068178;28;20048;-47
2024/03/28 00:59:28;;;;;;;3.13;0.50;;;;;;;;;;2068163;28;20497;-49
2024/03/28 01:00:29;;;;;;;2.97;0.85;;;;;;;;;;2065523;28;20378;-48
2024/03/28 01:01:31;;;;;;;5.78;0.93;;;;;;;;;;2067324;28;20137;-48
2024/03/28 01:02:32;;;;;;;3.08;0.88;;;;;;;;;;2069130;28;20488;-47
2024/03/28 01:03:33;;;;;;;4.03;0.65;;;;;;;;;;2065926;28;20146;-46
2024/03/28 01:04:36;;;;;;;4.32;0.70;;;;;;;;;;2064491;28;20127;-47
2024/03/28 01:05:37;;;;;;;3.58;0.63;;;;;;;;;;2070553;28;20022;-50
2024/03/28 01:06:40;;;;;;;3.60;0.40;;;;;;;;;;2055697;28;20545;-49
2024/03/28 01:07:42;;;;;;;4.20;0.80;;;;;;;;;;2066168;28;20014;-49
2024/03/28 01:08:43;;;;;;;3.88;0.60;;;;;;;;;;2071466;28;20121;-49
2024/03/28 01:09:46;;;;;;;2.83;0.70;;;;;;;;;;2071932;28;20018;-45
2024/03/28 01:10:47;;;;;;;4.78;1.02;;;;;;;;;;2070877;28;20048;-46
2024/03/28 01:11:48;;;;;;;4.85;0.70;;;;;;;;;;2073453;28;20121;-47
2024/03/28 01:12:50;;;;;;;3.38;0.82;;;;;;;;;;2072073;28;20379;-47
2024/03/28 01:13:51;;;;;;;3.83;0.75;;;;;;;;;;2072184;28;20021;-46
2024/03/28 01:14:52;;;;;;;4.07;0.80;;;;;;;;;;2070709;28;20018;-46
2024/03/28 01:15:54;;;;;;;4.05;1.23;;;;;;;;;;2065245;28;20730;-43
2024/03/28 01:16:55;;;;;;;6.05;1.23;;;;;;;;;;2062948;28;20038;-45
2024/03/28 01:17:56;;;;;;;5.45;0.65;;;;;;;;;;2065199;28;20030;-47
2024/03/28 01:18:58;;;;;;;3.90;0.70;;;;;;;;;;2068225;28;20121;-46
2024/03/28 01:19:59;;;;;;;3.13;0.80;;;;;;;;;;2067357;28;20109;-45
2024/03/28 01:21:04;;;;;;;6.93;0.93;;;;;;;;;;2065213;28;20208;-47
2024/03/28 01:22:05;;;;;;;5.65;0.95;;;;;;;;;;2067427;28;20022;-47
2024/03/28 01:23:08;;;;;;;6.70;0.95;;;;;;;;;;2073329;28;20041;-45
2024/03/28 01:24:10;;;;;;;4.47;0.65;;;;;;;;;;2072449;28;20417;-47
2024/03/28 01:25:11;;;;;;;6.68;1.35;;;;;;;;;;2071554;28;20076;-45
2024/03/28 01:26:12;;;;;;;3.85;0.73;;;;;;;;;;2073394;28;20076;-45
2024/03/28 01:27:14;;;;;;;5.93;0.90;;;;;;;;;;2067013;28;20011;-46
2024/03/28 01:28:15;;;;;;;4.03;0.82;;;;;;;;;;2065200;28;20057;-44
2024/03/28 01:29:17;;;;;;;3.88;0.75;;;;;;;;;;2065131;28;20488;-46
2024/03/28 01:30:18;;;;;;;3.78;0.90;;;;;;;;;;2063273;28;20030;-45
2024/03/28 01:31:19;;;;;;;7.30;1.15;;;;;;;;;;2064918;28;20034;-45
2024/03/28 01:32:21;;;;;;;4.38;0.75;;;;;;;;;;2060874;28;20026;-45
2024/03/28 01:33:22;;;;;;;3.20;0.90;;;;;;;;;;2058960;28;20023;-47
2024/03/28 01:34:23;;;;;;;6.05;0.75;;;;;;;;;;2071298;28;20022;-47
2024/03/28 01:35:26;;;;;;;2.80;0.60;;;;;;;;;;2073025;28;20044;-44
2024/03/28 01:36:27;;;;;;;6.03;0.98;;;;;;;;;;2065586;28;20022;-46
2024/03/28 01:37:28;;;;;;;5.50;1.00;;;;;;;;;;2064995;28;20018;-44
2024/03/28 01:38:30;;;;;;;4.00;0.77;;;;;;;;;;2064645;28;20385;-45
2024/03/28 01:39:32;;;;;;;3.72;0.88;;;;;;;;;;2065215;28;20042;-44
2024/03/28 01:40:33;;;;;;;5.30;0.90;;;;;;;;;;2069482;28;20399;-43
2024/03/28 01:41:35;;;;;;;3.83;0.80;;;;;;;;;;2064895;28;20019;-45
2024/03/28 01:42:36;;;;;;;3.83;0.45;;;;;;;;;;2065279;28;20496;-45
2024/03/28 01:43:39;;;;;;;3.80;0.98;;;;;;;;;;2065264;28;20466;-46
2024/03/28 01:44:40;;;;;;;2.10;0.40;;;;;;;;;;2064164;28;20026;-48
2024/03/28 01:45:42;;;;;;;4.63;0.80;;;;;;;;;;2067048;28;20049;-45
2024/03/28 01:46:52;;;;;;;5.45;0.73;;;;;;;;;;2073468;28;20543;-47
2024/03/28 01:47:54;;;;;;;3.33;0.88;;;;;;;;;;2071526;28;20358;-45
2024/03/28 01:48:56;;;;;;;3.80;0.77;;;;;;;;;;2071461;28;20022;-45
2024/03/28 01:49:58;;;;;;;2.42;0.50;;;;;;;;;;2065380;28;20050;-44
2024/03/28 01:51:00;;;;;;;3.63;0.65;;;;;;;;;;2069517;28;20022;-45
2024/03/28 01:52:02;;;;;;;1.73;0.45;;;;;;;;;;2071744;28;20153;-54
2024/03/28 01:53:04;;;;;;;3.42;0.60;;;;;;;;;;2065178;28;20377;-46
2024/03/28 01:54:06;;;;;;;4.25;0.75;;;;;;;;;;2068112;28;20100;-46
2024/03/28 01:55:08;;;;;;;1.67;0.35;;;;;;;;;;2072385;28;20450;-45
2024/03/28 01:56:09;;;;;;;6.78;0.82;;;;;;;;;;2071443;28;20025;-51
2024/03/28 01:57:12;;;;;;;2.28;0.70;;;;;;;;;;2071551;28;20549;-50
2024/03/28 01:58:14;;;;;;;2.80;0.60;;;;;;;;;;2073578;28;20110;-46
2024/03/28 01:59:15;;;;;;;1.17;0.38;;;;;;;;;;2071877;28;20167;-48
2024/03/28 02:00:17;;;;;;;2.70;0.50;;;;;;;;;;2070111;28;20030;-45
2024/03/28 02:01:18;;;;;;;4.82;0.80;;;;;;;;;;2064616;28;20089;-47
2024/03/28 02:02:20;;;;;;;2.58;0.50;;;;;;;;;;2065054;28;20042;-45
2024/03/28 02:03:22;;;;;;;3.72;0.60;;;;;;;;;;2068295;28;20436;-47
2024/03/28 02:04:24;;;;;;;6.40;0.85;;;;;;;;;;2064360;28;20030;-45
2024/03/28 02:05:25;;;;;;;5.43;0.98;;;;;;;;;;2058364;28;20117;-45
2024/03/28 02:06:27;;;;;;;2.85;0.60;;;;;;;;;;2056415;28;20402;-46
2024/03/28 02:07:28;;;;;;;2.72;0.70;;;;;;;;;;2071759;28;20044;-44
2024/03/28 02:08:30;;;;;;;3.30;0.50;;;;;;;;;;2063232;28;20023;-45
2024/03/28 02:09:32;;;;;;;3.17;0.65;;;;;;;;;;2064591;28;20085;-46
2024/03/28 02:10:34;;;;;;;4.15;0.80;;;;;;;;;;2069544;28;20527;-45
2024/03/28 02:11:35;;;;;;;3.88;0.70;;;;;;;;;;2064536;28;20120;-44
2024/03/28 02:12:37;;;;;;;2.38;0.47;;;;;;;;;;2063556;28;20057;-47
2024/03/28 02:13:38;;;;;;;1.85;0.50;;;;;;;;;;2062297;28;20393;-46
2024/03/28 02:14:39;;;;;;;1.42;0.50;;;;;;;;;;2065347;28;20378;-45
2024/03/28 02:15:41;;;;;;;6.00;0.95;;;;;;;;;;2073058;28;20091;-46
2024/03/28 02:16:42;;;;;;;4.18;0.80;;;;;;;;;;2068890;28;20452;-46
2024/03/28 02:17:50;;;;;;;3.63;1.00;;;;;;;;;;2064013;28;20042;-45
2024/03/28 02:18:58;;;;;;;3.45;0.45;;;;;;;;;;2058373;28;20023;-44
2024/03/28 02:19:59;;;;;;;3.00;0.50;;;;;;;;;;2065664;28;20006;-44
2024/03/28 02:21:01;;;;;;;1.83;0.50;;;;;;;;;;2072791;28;20018;-43
2024/03/28 02:22:02;;;;;;;2.95;0.60;;;;;;;;;;2072659;28;20088;-45
2024/03/28 02:23:04;;;;;;;2.75;0.57;;;;;;;;;;2070094;28;20026;-45
2024/03/28 02:24:05;;;;;;;3.50;1.13;;;;;;;;;;2064458;28;20026;-46
2024/03/28 02:25:08;;;;;;;2.88;0.50;;;;;;;;;;2064399;28;20122;-46
2024/03/28 02:26:09;;;;;;;3.03;0.43;;;;;;;;;;2064842;28;20386;-43
2024/03/28 02:27:10;;;;;;;2.63;0.77;;;;;;;;;;2064522;28;20038;-45
2024/03/28 02:28:13;;;;;;;2.10;0.55;;;;;;;;;;2065608;28;20026;-45
2024/03/28 02:29:14;;;;;;;3.08;0.40;;;;;;;;;;2064442;28;20080;-46
2024/03/28 02:30:15;;;;;;;3.35;0.45;;;;;;;;;;2058368;28;20027;-45
2024/03/28 02:31:19;;;;;;;1.50;0.30;;;;;;;;;;2065398;28;20066;-45
2024/03/28 02:32:20;;;;;;;3.20;0.32;;;;;;;;;;2064998;28;20022;-45
2024/03/28 02:33:21;;;;;;;2.30;0.60;;;;;;;;;;2066322;28;20037;-45
2024/03/28 02:34:23;;;;;;;3.80;0.70;;;;;;;;;;2064120;28;20018;-47
2024/03/28 02:35:24;;;;;;;3.03;0.40;;;;;;;;;;2068517;28;20100;-46
2024/03/28 02:36:25;;;;;;;4.68;0.50;;;;;;;;;;2064922;28;20020;-46
2024/03/28 02:37:26;;;;;;;3.10;0.47;;;;;;;;;;2064813;28;20022;-47
2024/03/28 02:38:28;;;;;;;2.95;0.40;;;;;;;;;;2065049;28;20026;-45
2024/03/28 02:39:29;;;;;;;2.92;0.40;;;;;;;;;;2064740;28;20461;-46
2024/03/28 02:40:30;;;;;;;1.60;0.20;;;;;;;;;;2064950;28;20022;-44
2024/03/28 02:41:32;;;;;;;4.25;0.60;;;;;;;;;;2064439;28;20109;-44
2024/03/28 02:42:33;;;;;;;2.25;0.55;;;;;;;;;;2065672;28;20023;-47
2024/03/28 02:43:36;;;;;;;1.88;0.52;;;;;;;;;;2066927;28;20468;-45
2024/03/28 02:44:37;;;;;;;1.73;0.50;;;;;;;;;;2064163;28;20014;-46
2024/03/28 02:45:39;;;;;;;3.97;0.35;;;;;;;;;;2064420;28;20331;-44
2024/03/28 02:46:41;;;;;;;4.10;0.30;;;;;;;;;;2064871;28;20073;-46
2024/03/28 02:47:42;;;;;;;2.90;0.40;;;;;;;;;;2064765;28;20042;-46
2024/03/28 02:48:44;;;;;;;1.52;0.50;;;;;;;;;;2063127;28;20057;-46
2024/03/28 02:49:45;;;;;;;2.55;0.52;;;;;;;;;;2056605;28;20058;-45
2024/03/28 02:50:46;;;;;;;1.25;0.32;;;;;;;;;;2069982;28;20347;-47
2024/03/28 02:51:48;;;;;;;2.13;0.60;;;;;;;;;;2072366;28;20043;-45
2024/03/28 02:52:49;;;;;;;3.92;0.50;;;;;;;;;;2073097;28;20101;-46
2024/03/28 02:53:50;;;;;;;2.53;0.50;;;;;;;;;;2065996;28;20033;-46
2024/03/28 02:54:52;;;;;;;4.13;0.57;;;;;;;;;;2064650;28;20881;-45
2024/03/28 02:55:53;;;;;;;2.28;0.43;;;;;;;;;;2068065;28;20037;-45
2024/03/28 02:56:54;;;;;;;4.50;0.60;;;;;;;;;;2067865;28;20010;-45
2024/03/28 02:57:56;;;;;;;2.25;0.20;;;;;;;;;;2068418;28;20064;-45
2024/03/28 02:58:57;;;;;;;2.58;0.45;;;;;;;;;;2064546;28;20059;-46
2024/03/28 02:59:59;;;;;;;1.35;0.40;;;;;;;;;;2063798;28;20034;-45
2024/03/28 03:01:03;;;;;;;3.55;0.40;;;;;;;;;;2064386;28;20014;-44
2024/03/28 03:02:04;;;;;;;2.47;0.30;;;;;;;;;;2079019;28;20037;-47
2024/03/28 03:03:06;;;;;;;3.78;0.47;;;;;;;;;;2079688;28;20104;-45
2024/03/28 03:04:07;;;;;;;3.22;0.45;;;;;;;;;;2063887;28;20026;-46
2024/03/28 03:05:09;;;;;;;1.95;0.50;;;;;;;;;;2063906;28;20018;-47
2024/03/28 03:06:10;;;;;;;4.28;0.50;;;;;;;;;;2064982;28;20096;-45
2024/03/28 03:07:13;;;;;;;2.13;0.40;;;;;;;;;;2070432;28;20571;-44
2024/03/28 03:08:14;;;;;;;3.47;0.43;;;;;;;;;;2068211;28;20113;-45
2024/03/28 03:09:15;;;;;;;4.22;0.57;;;;;;;;;;2067490;28;20136;-45
2024/03/28 03:10:17;;;;;;;2.63;0.25;;;;;;;;;;2064484;28;20105;-46
2024/03/28 03:11:18;;;;;;;3.10;0.50;;;;;;;;;;2064573;28;20497;-45
2024/03/28 03:12:19;;;;;;;2.35;0.47;;;;;;;;;;2064656;28;20433;-47
2024/03/28 03:13:21;;;;;;;1.40;0.40;;;;;;;;;;2067844;28;20033;-46
2024/03/28 03:14:22;;;;;;;3.40;0.47;;;;;;;;;;2065845;28;20042;-42
2024/03/28 03:15:24;;;;;;;2.40;0.35;;;;;;;;;;2069892;28;20442;-44
2024/03/28 03:16:25;;;;;;;2.60;0.40;;;;;;;;;;2068076;28;20132;-45
2024/03/28 03:17:27;;;;;;;3.30;0.47;;;;;;;;;;2064387;28;20038;-46
2024/03/28 03:18:28;;;;;;;2.63;0.40;;;;;;;;;;2057047;28;20070;-46
2024/03/28 03:19:30;;;;;;;2.03;0.50;;;;;;;;;;2063949;28;20018;-45
2024/03/28 03:20:43;;;;;;;1.70;0.22;;;;;;;;;;2064400;28;20477;-45
2024/03/28 03:21:48;;;;;;;2.50;0.40;;;;;;;;;;2071054;28;20061;-44
2024/03/28 03:22:51;;;;;;;1.77;0.43;;;;;;;;;;2064755;28;20022;-46
2024/03/28 03:24:00;;;;;;;3.47;0.40;;;;;;;;;;2064629;28;19999;-45
2024/03/28 03:25:11;;;;;;;1.75;0.57;;;;;;;;;;2070903;28;20082;-45
2024/03/28 03:26:19;;;;;;;1.05;0.20;;;;;;;;;;2069220;28;20588;-46
2024/03/28 03:27:21;;;;;;;1.27;0.30;;;;;;;;;;2066246;28;20030;-45
2024/03/28 03:35:03;;;;;;;1.52;0.17;;;;;;;;;;2068437;28;20513;-45
2024/03/28 03:36:04;;;;;;;1.05;0.30;;;;;;;;;;2064213;28;20026;-44
2024/03/28 03:37:16;;;;;;;1.63;0.32;;;;;;;;;;2064897;28;20011;-44
2024/03/28 03:38:17;;;;;;;1.33;0.28;;;;;;;;;;2063981;28;20169;-46
2024/03/28 03:39:19;;;;;;;2.83;0.52;;;;;;;;;;2064663;28;20362;-46
2024/03/28 03:40:21;;;;;;;0.98;0.30;;;;;;;;;;2061031;28;20450;-44
2024/03/28 03:41:24;;;;;;;1.00;0.30;;;;;;;;;;2064647;28;20156;-43
2024/03/28 03:42:25;;;;;;;0.98;0.20;;;;;;;;;;2064693;28;20037;-44
2024/03/28 03:43:26;;;;;;;0.85;0.13;;;;;;;;;;2066388;28;20096;-44
2024/03/28 03:44:28;;;;;;;0.63;0.20;;;;;;;;;;2072119;28;20098;-43
2024/03/28 03:45:29;;;;;;;1.75;0.20;;;;;;;;;;2059671;28;20102;-44
2024/03/28 03:46:30;;;;;;;1.75;0.40;;;;;;;;;;2065066;28;20021;-44
2024/03/28 03:47:32;;;;;;;3.15;0.52;;;;;;;;;;2072750;28;20018;-43
2024/03/28 03:48:33;;;;;;;0.40;0.10;;;;;;;;;;2068938;28;20010;-43
2024/03/28 03:49:34;;;;;;;1.85;0.30;;;;;;;;;;2069819;28;20125;-44
2024/03/28 03:50:36;;;;;;;2.30;0.43;;;;;;;;;;2064141;28;20014;-46
2024/03/28 03:51:37;;;;;;;0.95;0.15;;;;;;;;;;2066587;28;20030;-43
2024/03/28 03:52:38;;;;;;;1.70;0.30;;;;;;;;;;2071456;28;20037;-44
2024/03/28 03:53:40;;;;;;;1.58;0.30;;;;;;;;;;2069893;28;20030;-43
2024/03/28 03:54:41;;;;;;;2.40;0.30;;;;;;;;;;2067006;28;20436;-43
2024/03/28 03:55:51;;;;;;;2.20;0.30;;;;;;;;;;2064434;28;20034;-43
2024/03/28 03:56:52;;;;;;;1.55;0.30;;;;;;;;;;2065851;28;20014;-44
2024/03/28 03:57:53;;;;;;;1.33;0.30;;;;;;;;;;2064435;28;20014;-43
2024/03/28 03:58:56;;;;;;;2.33;0.30;;;;;;;;;;2063448;28;20028;-49
2024/03/28 03:59:58;;;;;;;1.27;0.20;;;;;;;;;;2056665;28;20367;-44
2024/03/28 04:00:59;;;;;;;1.48;0.30;;;;;;;;;;2062714;28;20597;-43
2024/03/28 04:02:01;;;;;;;2.45;0.45;;;;;;;;;;2072229;28;20096;-43
2024/03/28 04:03:02;;;;;;;1.40;0.22;;;;;;;;;;2079821;28;20009;-43
2024/03/28 04:04:04;;;;;;;1.92;0.38;;;;;;;;;;2066928;28;20033;-43
2024/03/28 04:05:06;;;;;;;1.80;0.50;;;;;;;;;;2064828;28;20019;-44
2024/03/28 04:06:08;;;;;;;3.20;0.30;;;;;;;;;;2063511;28;20114;-44
2024/03/28 04:07:10;;;;;;;3.85;0.28;;;;;;;;;;2066605;28;20010;-43
2024/03/28 04:08:12;;;;;;;1.05;0.20;;;;;;;;;;2064663;28;20018;-43
2024/03/28 04:09:13;;;;;;;0.85;0.40;;;;;;;;;;2066881;28;20025;-45
2024/03/28 04:10:14;;;;;;;2.08;0.60;;;;;;;;;;2065664;28;20062;-44
2024/03/28 04:11:17;;;;;;;2.42;0.40;;;;;;;;;;2064155;28;20069;-44
2024/03/28 04:12:18;;;;;;;1.10;0.20;;;;;;;;;;2066820;28;20393;-43
2024/03/28 04:13:20;;;;;;;1.38;0.22;;;;;;;;;;2061654;28;20025;-44
2024/03/28 04:14:21;;;;;;;1.75;0.17;;;;;;;;;;2068372;28;20021;-43
2024/03/28 04:15:22;;;;;;;2.15;0.32;;;;;;;;;;2069898;28;20037;-45
2024/03/28 04:16:24;;;;;;;1.55;0.30;;;;;;;;;;2067859;28;20049;-44
2024/03/28 04:17:25;;;;;;;1.98;0.30;;;;;;;;;;2067026;28;20013;-45
2024/03/28 04:18:27;;;;;;;1.85;0.20;;;;;;;;;;2072431;28;20029;-45
2024/03/28 04:19:28;;;;;;;0.85;0.10;;;;;;;;;;2069915;28;20022;-45
2024/03/28 04:20:29;;;;;;;1.92;0.13;;;;;;;;;;2069799;28;20101;-42
2024/03/28 04:21:31;;;;;;;0.63;0.17;;;;;;;;;;2065459;28;20019;-48
2024/03/28 04:22:32;;;;;;;1.65;0.40;;;;;;;;;;2064139;28;20065;-48
2024/03/28 04:23:33;;;;;;;2.45;0.32;;;;;;;;;;2063516;28;20031;-49
2024/03/28 04:24:34;;;;;;;1.83;0.30;;;;;;;;;;2063567;28;20014;-48
2024/03/28 04:25:36;;;;;;;1.52;0.30;;;;;;;;;;2067772;28;20041;-47
2024/03/28 04:26:37;;;;;;;1.67;0.22;;;;;;;;;;2067211;28;20458;-43
2024/03/28 04:27:39;;;;;;;1.75;0.20;;;;;;;;;;2071115;28;20038;-46
2024/03/28 04:28:40;;;;;;;1.52;0.30;;;;;;;;;;2067977;28;20646;-47
2024/03/28 04:29:41;;;;;;;1.48;0.30;;;;;;;;;;2064108;28;20045;-47
2024/03/28 04:30:43;;;;;;;1.10;0.22;;;;;;;;;;2063553;28;20030;-48
2024/03/28 04:31:44;;;;;;;1.35;0.17;;;;;;;;;;2063810;28;20027;-47
2024/03/28 04:32:45;;;;;;;1.00;0.20;;;;;;;;;;2064254;28;20197;-47
2024/03/28 04:33:47;;;;;;;0.77;0.20;;;;;;;;;;2064045;28;20120;-48
2024/03/28 04:34:49;;;;;;;1.25;0.15;;;;;;;;;;2059267;28;20085;-47
2024/03/28 04:35:50;;;;;;;1.88;0.35;;;;;;;;;;2063479;28;20034;-48
2024/03/28 04:36:52;;;;;;;2.33;0.40;;;;;;;;;;2063126;28;20038;-48
2024/03/28 04:37:53;;;;;;;4.03;0.70;;;;;;;;;;2063792;28;20433;-48
2024/03/28 04:38:54;;;;;;;1.50;0.30;;;;;;;;;;2064101;28;20103;-48
2024/03/28 04:39:55;;;;;;;1.60;0.20;;;;;;;;;;2064374;28;20042;-49
2024/03/28 04:40:57;;;;;;;0.70;0.20;;;;;;;;;;2064603;28;20065;-48
2024/03/28 04:41:58;;;;;;;1.73;0.40;;;;;;;;;;2071136;28;20017;-47
2024/03/28 04:42:59;;;;;;;1.48;0.40;;;;;;;;;;2066805;28;20029;-47
2024/03/28 04:44:01;;;;;;;1.85;0.55;;;;;;;;;;2069339;28;20017;-47
2024/03/28 04:45:04;;;;;;;1.25;0.30;;;;;;;;;;2070269;28;20017;-47
2024/03/28 04:46:05;;;;;;;1.20;0.10;;;;;;;;;;2066338;28;20509;-48
2024/03/28 04:47:07;;;;;;;1.42;0.20;;;;;;;;;;2067988;28;20069;-47
2024/03/28 04:48:08;;;;;;;1.20;0.15;;;;;;;;;;2069199;28;20069;-47
2024/03/28 04:49:09;;;;;;;1.50;0.30;;;;;;;;;;2067328;28;20041;-47
2024/03/28 04:50:11;;;;;;;1.80;0.30;;;;;;;;;;2071110;28;20025;-47
2024/03/28 04:51:12;;;;;;;1.88;0.50;;;;;;;;;;2067611;28;20587;-47
2024/03/28 04:52:14;;;;;;;2.05;0.30;;;;;;;;;;2068635;28;20010;-48
2024/03/28 04:53:15;;;;;;;2.03;0.40;;;;;;;;;;2070814;28;20107;-47
2024/03/28 04:54:17;;;;;;;2.15;0.30;;;;;;;;;;2064914;28;20100;-48
2024/03/28 04:55:20;;;;;;;0.50;0.20;;;;;;;;;;2065466;28;20397;-48
2024/03/28 04:56:21;;;;;;;1.20;0.20;;;;;;;;;;2070850;28;20465;-47
2024/03/28 04:57:23;;;;;;;1.45;0.10;;;;;;;;;;2066199;28;20405;-47
2024/03/28 04:58:25;;;;;;;0.47;0.10;;;;;;;;;;2069433;28;20046;-49
2024/03/28 04:59:26;;;;;;;2.53;0.35;;;;;;;;;;2065182;28;20018;-45
2024/03/28 05:00:29;;;;;;;1.55;0.22;;;;;;;;;;2064748;28;20018;-45
2024/03/28 05:01:30;;;;;;;1.98;0.22;;;;;;;;;;2064322;28;20081;-44
2024/03/28 05:02:31;;;;;;;2.45;0.52;;;;;;;;;;2073595;28;20029;-44
2024/03/28 05:03:33;;;;;;;1.42;0.10;;;;;;;;;;2069739;28;20053;-44
2024/03/28 05:04:34;;;;;;;0.77;0.10;;;;;;;;;;2071076;28;20022;-43
2024/03/28 05:05:35;;;;;;;1.48;0.30;;;;;;;;;;2071470;28;20046;-43
2024/03/28 05:06:37;;;;;;;0.70;0.17;;;;;;;;;;2066637;28;20381;-43
2024/03/28 05:07:38;;;;;;;0.77;0.20;;;;;;;;;;2065478;28;20026;-44
2024/03/28 05:08:40;;;;;;;1.35;0.40;;;;;;;;;;2070522;28;20080;-45
2024/03/28 05:09:42;;;;;;;0.82;0.20;;;;;;;;;;2069675;28;20026;-44
2024/03/28 05:10:43;;;;;;;1.85;0.20;;;;;;;;;;2073634;28;20029;-44
2024/03/28 05:11:44;;;;;;;1.52;0.22;;;;;;;;;;2069686;28;20461;-44
2024/03/28 05:12:46;;;;;;;0.60;0.20;;;;;;;;;;2070839;28;20034;-44
2024/03/28 05:13:47;;;;;;;1.70;0.22;;;;;;;;;;2065476;28;20105;-43
2024/03/28 05:14:48;;;;;;;1.92;0.30;;;;;;;;;;2065350;28;20485;-43
2024/03/28 05:15:50;;;;;;;3.88;0.60;;;;;;;;;;2065376;28;20532;-43
2024/03/28 05:16:52;;;;;;;1.00;0.30;;;;;;;;;;2065165;28;20041;-43
2024/03/28 05:17:53;;;;;;;2.05;0.30;;;;;;;;;;2062771;28;20038;-43
2024/03/28 05:18:55;;;;;;;2.92;0.45;;;;;;;;;;2065519;28;20013;-43
2024/03/28 05:19:56;;;;;;;3.15;0.20;;;;;;;;;;2058602;28;20026;-44
2024/03/28 05:20:57;;;;;;;2.30;0.30;;;;;;;;;;2062144;28;20022;-44
2024/03/28 05:21:59;;;;;;;2.25;0.57;;;;;;;;;;2057419;28;20023;-43
2024/03/28 05:23:00;;;;;;;2.67;0.20;;;;;;;;;;2066500;28;20033;-43
2024/03/28 05:24:01;;;;;;;1.95;0.28;;;;;;;;;;2070739;28;20638;-44
2024/03/28 05:25:03;;;;;;;2.70;0.40;;;;;;;;;;2065455;28;20536;-43
2024/03/28 05:26:04;;;;;;;1.08;0.17;;;;;;;;;;2064668;28;20098;-43
2024/03/28 05:27:06;;;;;;;1.45;0.45;;;;;;;;;;2064494;28;20080;-44
2024/03/28 05:28:07;;;;;;;0.52;0.20;;;;;;;;;;2070427;28;20401;-46
2024/03/28 05:29:08;;;;;;;1.67;0.32;;;;;;;;;;2068060;28;20509;-44
2024/03/28 05:30:10;;;;;;;2.47;0.40;;;;;;;;;;2060816;28;20046;-46
2024/03/28 05:31:17;;;;;;;1.50;0.17;;;;;;;;;;2064954;28;20023;-46
2024/03/28 05:32:18;;;;;;;0.85;0.15;;;;;;;;;;2064550;28;20018;-46
2024/03/28 05:33:19;;;;;;;1.25;0.20;;;;;;;;;;2065428;28;20040;-46
2024/03/28 05:34:22;;;;;;;1.75;0.25;;;;;;;;;;2064889;28;20038;-47
2024/03/28 05:35:23;;;;;;;1.65;0.30;;;;;;;;;;2065341;28;20030;-46
2024/03/28 05:36:25;;;;;;;2.13;0.20;;;;;;;;;;2065185;28;20076;-44
2024/03/28 05:37:27;;;;;;;0.75;0.20;;;;;;;;;;2064786;28;20558;-46
2024/03/28 05:38:28;;;;;;;2.50;0.40;;;;;;;;;;2066809;28;20797;-44
2024/03/28 05:39:29;;;;;;;3.28;0.40;;;;;;;;;;2072363;28;20614;-45
2024/03/28 05:40:31;;;;;;;1.85;0.28;;;;;;;;;;2063913;28;20033;-47
2024/03/28 05:41:32;;;;;;;2.22;0.47;;;;;;;;;;2064561;28;20027;-45
2024/03/28 05:42:34;;;;;;;0.85;0.20;;;;;;;;;;2065327;28;20026;-44
2024/03/28 05:43:35;;;;;;;3.60;0.35;;;;;;;;;;2064598;28;20030;-44
2024/03/28 05:44:36;;;;;;;0.68;0.13;;;;;;;;;;2060804;28;20018;-44
2024/03/28 05:45:37;;;;;;;0.45;0.13;;;;;;;;;;2064572;28;20135;-44
2024/03/28 05:46:39;;;;;;;0.85;0.20;;;;;;;;;;2064300;28;20054;-43
2024/03/28 05:47:40;;;;;;;2.10;0.28;;;;;;;;;;2065192;28;20034;-43
2024/03/28 05:48:42;;;;;;;1.63;0.20;;;;;;;;;;2064294;28;20022;-44
2024/03/28 05:49:43;;;;;;;0.88;0.20;;;;;;;;;;2061891;28;20026;-43
2024/03/28 05:50:44;;;;;;;2.35;0.20;;;;;;;;;;2073537;28;20037;-44
2024/03/28 05:51:46;;;;;;;1.65;0.15;;;;;;;;;;2068836;28;20104;-43
2024/03/28 05:52:47;;;;;;;0.60;0.10;;;;;;;;;;2069501;28;20371;-44
2024/03/28 05:53:49;;;;;;;1.58;0.30;;;;;;;;;;2065245;28;20038;-46
2024/03/28 05:54:50;;;;;;;0.73;0.20;;;;;;;;;;2065117;28;20030;-45
2024/03/28 05:55:51;;;;;;;1.17;0.30;;;;;;;;;;2064944;28;20026;-44
2024/03/28 05:56:52;;;;;;;0.88;0.20;;;;;;;;;;2071263;28;20105;-43
2024/03/28 05:57:54;;;;;;;1.05;0.20;;;;;;;;;;2069070;28;20532;-43
2024/03/28 05:58:55;;;;;;;0.85;0.40;;;;;;;;;;2072811;28;20014;-43
2024/03/28 05:59:57;;;;;;;1.42;0.45;;;;;;;;;;2069479;28;20017;-49
2024/03/28 06:00:58;;;;;;;2.03;0.30;;;;;;;;;;2068765;28;20053;-47
2024/03/28 06:01:59;;;;;;;2.92;0.38;;;;;;;;;;2064535;28;20073;-47
2024/03/28 06:03:01;;;;;;;1.52;0.38;;;;;;;;;;2067942;28;20527;-47
2024/03/28 06:04:03;;;;;;;2.95;0.20;;;;;;;;;;2070297;28;20444;-47
2024/03/28 06:05:04;;;;;;;1.23;0.25;;;;;;;;;;2070836;28;20113;-43
2024/03/28 06:06:06;;;;;;;0.77;0.20;;;;;;;;;;2067563;28;20041;-47
2024/03/28 06:07:07;;;;;;;1.10;0.30;;;;;;;;;;2063012;28;20073;-47
2024/03/28 06:08:09;;;;;;;1.02;0.50;;;;;;;;;;2067314;28;20066;-47
2024/03/28 06:09:10;;;;;;;1.85;0.40;;;;;;;;;;2064273;28;20084;-47
2024/03/28 06:10:11;;;;;;;2.08;0.30;;;;;;;;;;2065003;28;20026;-47
2024/03/28 06:11:13;;;;;;;3.35;0.45;;;;;;;;;;2063954;28;20022;-46
2024/03/28 06:12:14;;;;;;;2.83;0.20;;;;;;;;;;2069530;28;20034;-47
2024/03/28 06:13:18;;;;;;;0.70;0.22;;;;;;;;;;2068169;28;20022;-49
2024/03/28 06:14:20;;;;;;;0.75;0.28;;;;;;;;;;2064676;28;20034;-49
2024/03/28 06:15:21;;;;;;;1.60;0.52;;;;;;;;;;2063763;28;20548;-47
2024/03/28 06:16:22;;;;;;;2.55;0.30;;;;;;;;;;2064227;28;20058;-49